sensor_id;sensor_type;location;lat;lon;timestamp;P1;durP1;ratioP1;P2;durP2;ratioP2
1358;SDS011;673;48.098;14.422;2023-12-07T00:01:32;12.00;;;8.33;;
1358;SDS011;673;48.098;14.422;2023-12-07T00:04:01;13.13;;;8.53;;
1358;SDS011;673;48.098;14.422;2023-12-07T00:06:28;16.60;;;10.60;;
1358;SDS011;673;48.098;14.422;2023-12-07T00:08:55;19.07;;;8.93;;
1358;SDS011;673;48.098;14.422;2023-12-07T00:11:23;12.97;;;9.37;;
1358;SDS011;673;48.098;14.422;2023-12-07T00:13:50;12.53;;;10.00;;
1358;SDS011;673;48.098;14.422;2023-12-07T00:16:17;12.43;;;9.13;;
1358;SDS011;673;48.098;14.422;2023-12-07T00:18:44;12.10;;;8.37;;
1358;SDS011;673;48.098;14.422;2023-12-07T00:21:12;13.10;;;9.33;;
1358;SDS011;673;48.098;14.422;2023-12-07T00:23:39;10.50;;;8.73;;
1358;SDS011;673;48.098;14.422;2023-12-07T00:26:06;10.20;;;7.83;;
1358;SDS011;673;48.098;14.422;2023-12-07T00:28:33;13.20;;;11.17;;
1358;SDS011;673;48.098;14.422;2023-12-07T00:31:00;12.47;;;7.33;;
1358;SDS011;673;48.098;14.422;2023-12-07T00:33:28;13.13;;;8.33;;
1358;SDS011;673;48.098;14.422;2023-12-07T00:35:55;13.30;;;9.93;;
1358;SDS011;673;48.098;14.422;2023-12-07T00:38:23;12.30;;;8.90;;
1358;SDS011;673;48.098;14.422;2023-12-07T00:40:50;12.83;;;8.93;;
1358;SDS011;673;48.098;14.422;2023-12-07T00:43:17;11.33;;;8.20;;
1358;SDS011;673;48.098;14.422;2023-12-07T00:45:44;13.33;;;9.20;;
1358;SDS011;673;48.098;14.422;2023-12-07T00:48:11;13.70;;;8.63;;
1358;SDS011;673;48.098;14.422;2023-12-07T00:50:38;16.63;;;9.87;;
1358;SDS011;673;48.098;14.422;2023-12-07T00:53:05;11.50;;;7.80;;
1358;SDS011;673;48.098;14.422;2023-12-07T00:55:33;16.17;;;11.70;;
1358;SDS011;673;48.098;14.422;2023-12-07T00:58:01;15.60;;;10.00;;
1358;SDS011;673;48.098;14.422;2023-12-07T01:00:27;12.53;;;8.70;;
1358;SDS011;673;48.098;14.422;2023-12-07T01:02:54;15.07;;;10.13;;
1358;SDS011;673;48.098;14.422;2023-12-07T01:05:21;12.70;;;8.33;;
1358;SDS011;673;48.098;14.422;2023-12-07T01:07:48;14.17;;;9.10;;
1358;SDS011;673;48.098;14.422;2023-12-07T01:10:15;16.03;;;9.77;;
1358;SDS011;673;48.098;14.422;2023-12-07T01:12:44;12.10;;;8.90;;
1358;SDS011;673;48.098;14.422;2023-12-07T01:15:11;16.20;;;8.37;;
1358;SDS011;673;48.098;14.422;2023-12-07T01:17:38;13.77;;;10.10;;
1358;SDS011;673;48.098;14.422;2023-12-07T01:20:05;11.07;;;7.60;;
1358;SDS011;673;48.098;14.422;2023-12-07T01:22:37;14.70;;;10.37;;
1358;SDS011;673;48.098;14.422;2023-12-07T01:25:05;13.50;;;9.80;;
1358;SDS011;673;48.098;14.422;2023-12-07T01:27:33;13.47;;;9.80;;
1358;SDS011;673;48.098;14.422;2023-12-07T01:30:01;14.10;;;9.10;;
1358;SDS011;673;48.098;14.422;2023-12-07T01:32:29;11.60;;;9.83;;
1358;SDS011;673;48.098;14.422;2023-12-07T01:34:56;14.73;;;8.43;;
1358;SDS011;673;48.098;14.422;2023-12-07T01:37:22;15.60;;;10.10;;
1358;SDS011;673;48.098;14.422;2023-12-07T01:39:49;13.03;;;9.77;;
1358;SDS011;673;48.098;14.422;2023-12-07T01:42:16;13.30;;;8.90;;
1358;SDS011;673;48.098;14.422;2023-12-07T01:44:43;12.90;;;8.77;;
1358;SDS011;673;48.098;14.422;2023-12-07T01:47:12;13.20;;;9.87;;
1358;SDS011;673;48.098;14.422;2023-12-07T01:49:39;12.07;;;9.53;;
1358;SDS011;673;48.098;14.422;2023-12-07T01:52:07;13.73;;;8.70;;
1358;SDS011;673;48.098;14.422;2023-12-07T01:54:36;10.90;;;8.83;;
1358;SDS011;673;48.098;14.422;2023-12-07T01:57:04;17.83;;;11.70;;
1358;SDS011;673;48.098;14.422;2023-12-07T01:59:31;15.17;;;9.73;;
1358;SDS011;673;48.098;14.422;2023-12-07T02:01:59;14.03;;;10.07;;
1358;SDS011;673;48.098;14.422;2023-12-07T02:04:27;11.63;;;8.90;;
1358;SDS011;673;48.098;14.422;2023-12-07T02:06:56;14.57;;;10.60;;
1358;SDS011;673;48.098;14.422;2023-12-07T02:09:24;17.30;;;10.77;;
1358;SDS011;673;48.098;14.422;2023-12-07T02:11:51;15.13;;;10.10;;
1358;SDS011;673;48.098;14.422;2023-12-07T02:14:18;12.67;;;8.43;;
1358;SDS011;673;48.098;14.422;2023-12-07T02:16:47;13.53;;;10.37;;
1358;SDS011;673;48.098;14.422;2023-12-07T02:19:25;14.80;;;10.43;;
1358;SDS011;673;48.098;14.422;2023-12-07T02:22:17;16.60;;;9.30;;
1358;SDS011;673;48.098;14.422;2023-12-07T02:24:58;13.27;;;9.77;;
1358;SDS011;673;48.098;14.422;2023-12-07T02:27:34;12.93;;;9.10;;
1358;SDS011;673;48.098;14.422;2023-12-07T02:30:02;11.40;;;8.33;;
1358;SDS011;673;48.098;14.422;2023-12-07T02:32:30;13.27;;;8.83;;
1358;SDS011;673;48.098;14.422;2023-12-07T02:34:57;15.20;;;10.43;;
1358;SDS011;673;48.098;14.422;2023-12-07T02:37:25;12.70;;;10.33;;
1358;SDS011;673;48.098;14.422;2023-12-07T02:39:55;11.10;;;8.87;;
1358;SDS011;673;48.098;14.422;2023-12-07T02:42:23;11.90;;;7.93;;
1358;SDS011;673;48.098;14.422;2023-12-07T02:44:53;12.30;;;9.17;;
1358;SDS011;673;48.098;14.422;2023-12-07T02:47:20;11.60;;;8.33;;
1358;SDS011;673;48.098;14.422;2023-12-07T02:49:47;11.90;;;8.50;;
1358;SDS011;673;48.098;14.422;2023-12-07T02:52:14;13.87;;;9.43;;
1358;SDS011;673;48.098;14.422;2023-12-07T02:54:41;13.00;;;8.13;;
1358;SDS011;673;48.098;14.422;2023-12-07T02:57:08;16.57;;;9.77;;
1358;SDS011;673;48.098;14.422;2023-12-07T02:59:35;12.23;;;8.70;;
1358;SDS011;673;48.098;14.422;2023-12-07T03:02:04;12.07;;;9.17;;
1358;SDS011;673;48.098;14.422;2023-12-07T03:04:31;11.83;;;7.80;;
1358;SDS011;673;48.098;14.422;2023-12-07T03:06:58;12.17;;;8.13;;
1358;SDS011;673;48.098;14.422;2023-12-07T03:09:25;12.40;;;9.10;;
1358;SDS011;673;48.098;14.422;2023-12-07T03:11:52;16.60;;;11.70;;
1358;SDS011;673;48.098;14.422;2023-12-07T03:14:19;10.03;;;8.33;;
1358;SDS011;673;48.098;14.422;2023-12-07T03:16:45;12.80;;;8.97;;
1358;SDS011;673;48.098;14.422;2023-12-07T03:19:14;13.20;;;8.60;;
1358;SDS011;673;48.098;14.422;2023-12-07T03:21:41;12.03;;;8.57;;
1358;SDS011;673;48.098;14.422;2023-12-07T03:24:08;14.40;;;8.53;;
1358;SDS011;673;48.098;14.422;2023-12-07T03:26:35;11.87;;;8.47;;
1358;SDS011;673;48.098;14.422;2023-12-07T03:29:03;16.40;;;11.90;;
1358;SDS011;673;48.098;14.422;2023-12-07T03:31:30;12.13;;;8.60;;
1358;SDS011;673;48.098;14.422;2023-12-07T03:33:57;15.40;;;9.10;;
1358;SDS011;673;48.098;14.422;2023-12-07T03:36:27;11.93;;;9.40;;
1358;SDS011;673;48.098;14.422;2023-12-07T03:38:55;10.00;;;7.30;;
1358;SDS011;673;48.098;14.422;2023-12-07T03:41:22;12.90;;;9.50;;
1358;SDS011;673;48.098;14.422;2023-12-07T03:43:49;16.27;;;8.93;;
1358;SDS011;673;48.098;14.422;2023-12-07T03:46:16;10.50;;;7.17;;
1358;SDS011;673;48.098;14.422;2023-12-07T03:48:43;12.30;;;9.00;;
1358;SDS011;673;48.098;14.422;2023-12-07T03:51:12;14.00;;;9.60;;
1358;SDS011;673;48.098;14.422;2023-12-07T03:53:43;16.07;;;8.63;;
1358;SDS011;673;48.098;14.422;2023-12-07T03:56:10;13.40;;;8.20;;
1358;SDS011;673;48.098;14.422;2023-12-07T03:58:37;13.77;;;8.97;;
1358;SDS011;673;48.098;14.422;2023-12-07T04:01:04;15.30;;;10.43;;
1358;SDS011;673;48.098;14.422;2023-12-07T04:03:31;12.73;;;8.97;;
1358;SDS011;673;48.098;14.422;2023-12-07T04:05:59;12.83;;;7.90;;
1358;SDS011;673;48.098;14.422;2023-12-07T04:08:27;11.40;;;8.60;;
1358;SDS011;673;48.098;14.422;2023-12-07T04:10:55;14.37;;;8.63;;
1358;SDS011;673;48.098;14.422;2023-12-07T04:13:22;12.50;;;9.10;;
1358;SDS011;673;48.098;14.422;2023-12-07T04:15:49;10.67;;;7.30;;
1358;SDS011;673;48.098;14.422;2023-12-07T04:18:17;14.33;;;8.73;;
1358;SDS011;673;48.098;14.422;2023-12-07T04:20:44;13.77;;;10.07;;
1358;SDS011;673;48.098;14.422;2023-12-07T04:23:11;13.50;;;9.53;;
1358;SDS011;673;48.098;14.422;2023-12-07T04:25:38;11.37;;;8.40;;
1358;SDS011;673;48.098;14.422;2023-12-07T04:28:06;10.00;;;6.90;;
1358;SDS011;673;48.098;14.422;2023-12-07T04:30:33;11.00;;;8.40;;
1358;SDS011;673;48.098;14.422;2023-12-07T04:33:00;13.87;;;9.00;;
1358;SDS011;673;48.098;14.422;2023-12-07T04:35:27;10.67;;;7.80;;
1358;SDS011;673;48.098;14.422;2023-12-07T04:37:54;12.40;;;9.80;;
1358;SDS011;673;48.098;14.422;2023-12-07T04:40:21;13.83;;;9.47;;
1358;SDS011;673;48.098;14.422;2023-12-07T04:42:49;13.73;;;8.53;;
1358;SDS011;673;48.098;14.422;2023-12-07T04:45:17;13.67;;;8.23;;
1358;SDS011;673;48.098;14.422;2023-12-07T04:47:45;11.47;;;8.17;;
1358;SDS011;673;48.098;14.422;2023-12-07T04:50:12;10.67;;;8.30;;
1358;SDS011;673;48.098;14.422;2023-12-07T04:52:39;14.13;;;8.90;;
1358;SDS011;673;48.098;14.422;2023-12-07T04:55:06;15.27;;;8.60;;
1358;SDS011;673;48.098;14.422;2023-12-07T04:57:33;15.30;;;9.67;;
1358;SDS011;673;48.098;14.422;2023-12-07T05:00:01;13.67;;;9.73;;
1358;SDS011;673;48.098;14.422;2023-12-07T05:02:32;14.70;;;10.20;;
1358;SDS011;673;48.098;14.422;2023-12-07T05:04:59;20.50;;;11.10;;
1358;SDS011;673;48.098;14.422;2023-12-07T05:07:26;13.63;;;10.07;;
1358;SDS011;673;48.098;14.422;2023-12-07T05:09:53;11.83;;;7.80;;
1358;SDS011;673;48.098;14.422;2023-12-07T05:12:20;14.63;;;9.60;;
1358;SDS011;673;48.098;14.422;2023-12-07T05:14:47;14.10;;;8.47;;
1358;SDS011;673;48.098;14.422;2023-12-07T05:17:15;17.23;;;9.53;;
1358;SDS011;673;48.098;14.422;2023-12-07T05:19:45;14.53;;;9.80;;
1358;SDS011;673;48.098;14.422;2023-12-07T05:22:12;28.87;;;15.13;;
1358;SDS011;673;48.098;14.422;2023-12-07T05:24:40;26.10;;;12.90;;
1358;SDS011;673;48.098;14.422;2023-12-07T05:27:07;23.27;;;14.80;;
1358;SDS011;673;48.098;14.422;2023-12-07T05:29:35;23.43;;;14.50;;
1358;SDS011;673;48.098;14.422;2023-12-07T05:32:02;15.90;;;11.40;;
1358;SDS011;673;48.098;14.422;2023-12-07T05:34:29;19.17;;;10.63;;
1358;SDS011;673;48.098;14.422;2023-12-07T05:36:57;16.67;;;10.80;;
1358;SDS011;673;48.098;14.422;2023-12-07T05:39:24;18.33;;;12.33;;
1358;SDS011;673;48.098;14.422;2023-12-07T05:41:51;16.67;;;12.93;;
1358;SDS011;673;48.098;14.422;2023-12-07T05:44:18;15.60;;;10.80;;
1358;SDS011;673;48.098;14.422;2023-12-07T05:46:47;14.10;;;10.63;;
1358;SDS011;673;48.098;14.422;2023-12-07T05:49:14;11.07;;;9.70;;
1358;SDS011;673;48.098;14.422;2023-12-07T05:51:41;14.63;;;9.90;;
1358;SDS011;673;48.098;14.422;2023-12-07T05:54:10;17.27;;;10.83;;
1358;SDS011;673;48.098;14.422;2023-12-07T05:56:37;17.60;;;10.90;;
1358;SDS011;673;48.098;14.422;2023-12-07T05:59:03;15.43;;;10.80;;
1358;SDS011;673;48.098;14.422;2023-12-07T06:01:31;16.30;;;10.60;;
1358;SDS011;673;48.098;14.422;2023-12-07T06:03:58;15.50;;;10.70;;
1358;SDS011;673;48.098;14.422;2023-12-07T06:06:25;15.40;;;10.60;;
1358;SDS011;673;48.098;14.422;2023-12-07T06:08:52;13.50;;;9.93;;
1358;SDS011;673;48.098;14.422;2023-12-07T06:11:20;14.73;;;10.33;;
1358;SDS011;673;48.098;14.422;2023-12-07T06:13:47;11.80;;;7.60;;
1358;SDS011;673;48.098;14.422;2023-12-07T06:16:14;16.70;;;10.33;;
1358;SDS011;673;48.098;14.422;2023-12-07T06:18:42;16.30;;;9.20;;
1358;SDS011;673;48.098;14.422;2023-12-07T06:21:09;16.20;;;11.13;;
1358;SDS011;673;48.098;14.422;2023-12-07T06:23:37;15.73;;;9.73;;
1358;SDS011;673;48.098;14.422;2023-12-07T06:26:04;24.20;;;15.63;;
1358;SDS011;673;48.098;14.422;2023-12-07T06:28:33;20.00;;;12.40;;
1358;SDS011;673;48.098;14.422;2023-12-07T06:31:04;17.50;;;12.67;;
1358;SDS011;673;48.098;14.422;2023-12-07T06:33:32;19.37;;;11.70;;
1358;SDS011;673;48.098;14.422;2023-12-07T06:35:59;16.97;;;11.00;;
1358;SDS011;673;48.098;14.422;2023-12-07T06:38:28;14.53;;;10.03;;
1358;SDS011;673;48.098;14.422;2023-12-07T06:40:55;17.33;;;10.90;;
1358;SDS011;673;48.098;14.422;2023-12-07T06:43:22;13.60;;;10.60;;
1358;SDS011;673;48.098;14.422;2023-12-07T06:45:50;17.83;;;11.23;;
1358;SDS011;673;48.098;14.422;2023-12-07T06:48:18;15.03;;;11.27;;
1358;SDS011;673;48.098;14.422;2023-12-07T06:50:45;14.80;;;10.00;;
1358;SDS011;673;48.098;14.422;2023-12-07T06:53:12;12.73;;;11.07;;
1358;SDS011;673;48.098;14.422;2023-12-07T06:55:41;14.73;;;9.30;;
1358;SDS011;673;48.098;14.422;2023-12-07T06:58:08;13.37;;;9.27;;
1358;SDS011;673;48.098;14.422;2023-12-07T07:00:36;14.97;;;9.93;;
1358;SDS011;673;48.098;14.422;2023-12-07T07:03:04;15.10;;;10.87;;
1358;SDS011;673;48.098;14.422;2023-12-07T07:05:32;14.37;;;9.90;;
1358;SDS011;673;48.098;14.422;2023-12-07T07:07:59;18.20;;;11.00;;
1358;SDS011;673;48.098;14.422;2023-12-07T07:10:26;17.13;;;11.53;;
1358;SDS011;673;48.098;14.422;2023-12-07T07:12:53;13.53;;;9.93;;
1358;SDS011;673;48.098;14.422;2023-12-07T07:15:20;21.30;;;9.77;;
1358;SDS011;673;48.098;14.422;2023-12-07T07:17:50;13.07;;;11.30;;
1358;SDS011;673;48.098;14.422;2023-12-07T07:20:19;13.37;;;10.30;;
1358;SDS011;673;48.098;14.422;2023-12-07T07:22:45;18.63;;;11.33;;
1358;SDS011;673;48.098;14.422;2023-12-07T07:25:13;19.77;;;11.67;;
1358;SDS011;673;48.098;14.422;2023-12-07T07:27:41;17.83;;;11.83;;
1358;SDS011;673;48.098;14.422;2023-12-07T07:30:08;14.97;;;10.53;;
1358;SDS011;673;48.098;14.422;2023-12-07T07:32:36;15.03;;;11.47;;
1358;SDS011;673;48.098;14.422;2023-12-07T07:35:03;17.23;;;9.80;;
1358;SDS011;673;48.098;14.422;2023-12-07T07:37:32;15.37;;;11.10;;
1358;SDS011;673;48.098;14.422;2023-12-07T07:39:59;15.27;;;10.27;;
1358;SDS011;673;48.098;14.422;2023-12-07T07:42:31;18.37;;;10.30;;
1358;SDS011;673;48.098;14.422;2023-12-07T07:44:58;11.97;;;8.37;;
1358;SDS011;673;48.098;14.422;2023-12-07T07:47:25;15.47;;;10.53;;
1358;SDS011;673;48.098;14.422;2023-12-07T07:49:52;18.33;;;12.37;;
1358;SDS011;673;48.098;14.422;2023-12-07T07:52:19;19.03;;;12.67;;
1358;SDS011;673;48.098;14.422;2023-12-07T07:54:48;17.87;;;13.63;;
1358;SDS011;673;48.098;14.422;2023-12-07T07:57:15;18.60;;;12.10;;
1358;SDS011;673;48.098;14.422;2023-12-07T07:59:42;19.30;;;12.07;;
1358;SDS011;673;48.098;14.422;2023-12-07T08:02:09;24.93;;;14.87;;
1358;SDS011;673;48.098;14.422;2023-12-07T08:04:36;26.70;;;15.70;;
1358;SDS011;673;48.098;14.422;2023-12-07T08:07:03;15.07;;;12.10;;
1358;SDS011;673;48.098;14.422;2023-12-07T08:09:30;21.03;;;13.17;;
1358;SDS011;673;48.098;14.422;2023-12-07T08:11:59;19.87;;;13.10;;
1358;SDS011;673;48.098;14.422;2023-12-07T08:14:26;15.60;;;11.50;;
1358;SDS011;673;48.098;14.422;2023-12-07T08:16:53;15.47;;;11.50;;
1358;SDS011;673;48.098;14.422;2023-12-07T08:19:20;16.63;;;11.30;;
1358;SDS011;673;48.098;14.422;2023-12-07T08:21:47;16.00;;;10.93;;
1358;SDS011;673;48.098;14.422;2023-12-07T08:24:16;18.67;;;11.00;;
1358;SDS011;673;48.098;14.422;2023-12-07T08:26:43;19.97;;;12.30;;
1358;SDS011;673;48.098;14.422;2023-12-07T08:29:11;15.60;;;11.17;;
1358;SDS011;673;48.098;14.422;2023-12-07T08:31:39;14.47;;;10.33;;
1358;SDS011;673;48.098;14.422;2023-12-07T08:34:06;17.40;;;12.47;;
1358;SDS011;673;48.098;14.422;2023-12-07T08:36:33;14.07;;;10.13;;
1358;SDS011;673;48.098;14.422;2023-12-07T08:39:00;15.33;;;10.30;;
1358;SDS011;673;48.098;14.422;2023-12-07T08:41:27;17.17;;;12.23;;
1358;SDS011;673;48.098;14.422;2023-12-07T08:43:54;18.97;;;11.97;;
1358;SDS011;673;48.098;14.422;2023-12-07T08:46:23;18.50;;;13.60;;
1358;SDS011;673;48.098;14.422;2023-12-07T08:48:50;12.23;;;9.20;;
1358;SDS011;673;48.098;14.422;2023-12-07T08:51:17;12.10;;;8.67;;
1358;SDS011;673;48.098;14.422;2023-12-07T08:53:44;17.10;;;9.93;;
1358;SDS011;673;48.098;14.422;2023-12-07T08:56:11;15.90;;;10.13;;
1358;SDS011;673;48.098;14.422;2023-12-07T08:58:38;19.33;;;11.57;;
1358;SDS011;673;48.098;14.422;2023-12-07T09:01:06;15.90;;;8.80;;
1358;SDS011;673;48.098;14.422;2023-12-07T09:03:34;12.00;;;9.57;;
1358;SDS011;673;48.098;14.422;2023-12-07T09:06:02;16.90;;;11.07;;
1358;SDS011;673;48.098;14.422;2023-12-07T09:08:30;17.87;;;11.00;;
1358;SDS011;673;48.098;14.422;2023-12-07T09:10:57;16.60;;;11.47;;
1358;SDS011;673;48.098;14.422;2023-12-07T09:13:24;13.83;;;9.97;;
1358;SDS011;673;48.098;14.422;2023-12-07T09:15:51;15.90;;;11.40;;
1358;SDS011;673;48.098;14.422;2023-12-07T09:18:19;17.43;;;11.97;;
1358;SDS011;673;48.098;14.422;2023-12-07T09:20:47;16.63;;;10.00;;
1358;SDS011;673;48.098;14.422;2023-12-07T09:23:14;14.03;;;10.57;;
1358;SDS011;673;48.098;14.422;2023-12-07T09:25:41;15.20;;;11.77;;
1358;SDS011;673;48.098;14.422;2023-12-07T09:28:08;16.77;;;11.70;;
1358;SDS011;673;48.098;14.422;2023-12-07T09:30:36;16.23;;;11.77;;
1358;SDS011;673;48.098;14.422;2023-12-07T09:33:03;17.07;;;11.83;;
1358;SDS011;673;48.098;14.422;2023-12-07T09:35:30;13.67;;;10.10;;
1358;SDS011;673;48.098;14.422;2023-12-07T09:38:01;13.20;;;11.20;;
1358;SDS011;673;48.098;14.422;2023-12-07T09:40:29;15.03;;;9.17;;
1358;SDS011;673;48.098;14.422;2023-12-07T09:42:56;14.03;;;9.80;;
1358;SDS011;673;48.098;14.422;2023-12-07T09:45:23;15.90;;;11.00;;
1358;SDS011;673;48.098;14.422;2023-12-07T09:47:51;13.97;;;9.70;;
1358;SDS011;673;48.098;14.422;2023-12-07T09:50:19;14.70;;;9.50;;
1358;SDS011;673;48.098;14.422;2023-12-07T09:52:47;13.00;;;9.00;;
1358;SDS011;673;48.098;14.422;2023-12-07T09:55:17;15.30;;;10.90;;
1358;SDS011;673;48.098;14.422;2023-12-07T09:57:45;12.07;;;8.60;;
1358;SDS011;673;48.098;14.422;2023-12-07T10:00:13;14.97;;;10.57;;
1358;SDS011;673;48.098;14.422;2023-12-07T10:02:40;15.33;;;9.80;;
1358;SDS011;673;48.098;14.422;2023-12-07T10:05:09;14.07;;;9.80;;
1358;SDS011;673;48.098;14.422;2023-12-07T10:07:39;11.83;;;10.07;;
1358;SDS011;673;48.098;14.422;2023-12-07T10:10:07;16.90;;;11.53;;
1358;SDS011;673;48.098;14.422;2023-12-07T10:12:44;13.57;;;9.90;;
1358;SDS011;673;48.098;14.422;2023-12-07T10:15:12;17.13;;;10.33;;
1358;SDS011;673;48.098;14.422;2023-12-07T10:17:43;13.40;;;8.83;;
1358;SDS011;673;48.098;14.422;2023-12-07T10:20:15;11.30;;;9.47;;
1358;SDS011;673;48.098;14.422;2023-12-07T10:22:42;14.80;;;10.43;;
1358;SDS011;673;48.098;14.422;2023-12-07T10:25:10;13.70;;;9.53;;
1358;SDS011;673;48.098;14.422;2023-12-07T10:27:39;17.10;;;9.43;;
1358;SDS011;673;48.098;14.422;2023-12-07T10:30:08;13.50;;;10.37;;
1358;SDS011;673;48.098;14.422;2023-12-07T10:32:37;18.07;;;12.33;;
1358;SDS011;673;48.098;14.422;2023-12-07T10:35:06;15.33;;;10.90;;
1358;SDS011;673;48.098;14.422;2023-12-07T10:37:35;15.10;;;10.50;;
1358;SDS011;673;48.098;14.422;2023-12-07T10:40:02;13.90;;;11.07;;
1358;SDS011;673;48.098;14.422;2023-12-07T10:42:32;13.00;;;9.80;;
1358;SDS011;673;48.098;14.422;2023-12-07T10:45:04;14.47;;;11.07;;
1358;SDS011;673;48.098;14.422;2023-12-07T10:47:35;15.30;;;10.10;;
1358;SDS011;673;48.098;14.422;2023-12-07T10:50:05;17.60;;;11.60;;
1358;SDS011;673;48.098;14.422;2023-12-07T10:52:36;13.27;;;10.20;;
1358;SDS011;673;48.098;14.422;2023-12-07T10:55:07;15.50;;;11.87;;
1358;SDS011;673;48.098;14.422;2023-12-07T10:57:38;13.87;;;10.40;;
1358;SDS011;673;48.098;14.422;2023-12-07T11:00:08;13.37;;;9.67;;
1358;SDS011;673;48.098;14.422;2023-12-07T11:02:37;16.80;;;10.23;;
1358;SDS011;673;48.098;14.422;2023-12-07T11:05:06;18.83;;;11.37;;
1358;SDS011;673;48.098;14.422;2023-12-07T11:07:38;12.90;;;11.10;;
1358;SDS011;673;48.098;14.422;2023-12-07T11:10:14;14.27;;;10.27;;
1358;SDS011;673;48.098;14.422;2023-12-07T11:12:49;15.60;;;11.47;;
1358;SDS011;673;48.098;14.422;2023-12-07T11:15:22;12.40;;;10.23;;
1358;SDS011;673;48.098;14.422;2023-12-07T11:17:51;17.77;;;12.30;;
1358;SDS011;673;48.098;14.422;2023-12-07T11:20:20;14.77;;;10.50;;
1358;SDS011;673;48.098;14.422;2023-12-07T11:22:47;15.40;;;10.60;;
1358;SDS011;673;48.098;14.422;2023-12-07T11:25:15;14.90;;;10.47;;
1358;SDS011;673;48.098;14.422;2023-12-07T11:27:45;9.83;;;8.27;;
1358;SDS011;673;48.098;14.422;2023-12-07T11:30:15;10.53;;;8.57;;
1358;SDS011;673;48.098;14.422;2023-12-07T11:32:44;10.73;;;8.20;;
1358;SDS011;673;48.098;14.422;2023-12-07T11:35:11;15.47;;;11.17;;
1358;SDS011;673;48.098;14.422;2023-12-07T11:40:34;14.03;;;10.20;;
1358;SDS011;673;48.098;14.422;2023-12-07T11:43:02;13.43;;;9.50;;
1358;SDS011;673;48.098;14.422;2023-12-07T11:45:37;12.53;;;10.03;;
1358;SDS011;673;48.098;14.422;2023-12-07T11:48:07;12.67;;;9.67;;
1358;SDS011;673;48.098;14.422;2023-12-07T11:53:21;12.90;;;9.37;;
1358;SDS011;673;48.098;14.422;2023-12-07T11:55:49;12.00;;;9.60;;
1358;SDS011;673;48.098;14.422;2023-12-07T11:58:16;13.40;;;11.00;;
1358;SDS011;673;48.098;14.422;2023-12-07T12:00:43;10.67;;;8.80;;
1358;SDS011;673;48.098;14.422;2023-12-07T12:03:13;19.70;;;11.40;;
1358;SDS011;673;48.098;14.422;2023-12-07T12:05:40;11.27;;;8.80;;
1358;SDS011;673;48.098;14.422;2023-12-07T12:08:09;11.43;;;9.10;;
1358;SDS011;673;48.098;14.422;2023-12-07T12:10:36;12.03;;;8.67;;
1358;SDS011;673;48.098;14.422;2023-12-07T12:13:04;10.73;;;9.20;;
1358;SDS011;673;48.098;14.422;2023-12-07T12:15:31;12.70;;;9.23;;
1358;SDS011;673;48.098;14.422;2023-12-07T12:17:59;12.80;;;10.57;;
1358;SDS011;673;48.098;14.422;2023-12-07T12:20:29;9.43;;;8.37;;
1358;SDS011;673;48.098;14.422;2023-12-07T12:22:56;12.03;;;8.83;;
1358;SDS011;673;48.098;14.422;2023-12-07T12:25:25;15.27;;;11.10;;
1358;SDS011;673;48.098;14.422;2023-12-07T12:27:53;12.03;;;9.50;;
1358;SDS011;673;48.098;14.422;2023-12-07T12:30:21;13.43;;;9.67;;
1358;SDS011;673;48.098;14.422;2023-12-07T12:32:49;15.37;;;9.87;;
1358;SDS011;673;48.098;14.422;2023-12-07T12:35:16;14.00;;;10.60;;
1358;SDS011;673;48.098;14.422;2023-12-07T12:37:46;13.77;;;10.03;;
1358;SDS011;673;48.098;14.422;2023-12-07T12:40:17;11.70;;;8.77;;
1358;SDS011;673;48.098;14.422;2023-12-07T12:42:45;12.90;;;9.60;;
1358;SDS011;673;48.098;14.422;2023-12-07T12:45:13;13.40;;;9.00;;
1358;SDS011;673;48.098;14.422;2023-12-07T12:47:41;12.33;;;9.23;;
1358;SDS011;673;48.098;14.422;2023-12-07T12:50:09;12.03;;;8.13;;
1358;SDS011;673;48.098;14.422;2023-12-07T12:52:37;14.30;;;9.47;;
1358;SDS011;673;48.098;14.422;2023-12-07T12:55:08;13.20;;;9.27;;
1358;SDS011;673;48.098;14.422;2023-12-07T12:57:36;15.07;;;10.10;;
1358;SDS011;673;48.098;14.422;2023-12-07T13:00:04;14.40;;;9.53;;
1358;SDS011;673;48.098;14.422;2023-12-07T13:02:33;14.47;;;9.27;;
1358;SDS011;673;48.098;14.422;2023-12-07T13:05:00;12.03;;;9.53;;
1358;SDS011;673;48.098;14.422;2023-12-07T13:07:27;12.97;;;8.97;;
1358;SDS011;673;48.098;14.422;2023-12-07T13:09:54;11.50;;;8.73;;
1358;SDS011;673;48.098;14.422;2023-12-07T13:12:22;12.90;;;10.23;;
1358;SDS011;673;48.098;14.422;2023-12-07T13:14:52;13.93;;;9.50;;
1358;SDS011;673;48.098;14.422;2023-12-07T13:17:20;16.17;;;10.77;;
1358;SDS011;673;48.098;14.422;2023-12-07T13:19:47;13.80;;;9.47;;
1358;SDS011;673;48.098;14.422;2023-12-07T13:22:14;19.43;;;9.90;;
1358;SDS011;673;48.098;14.422;2023-12-07T13:24:41;14.77;;;10.30;;
1358;SDS011;673;48.098;14.422;2023-12-07T13:27:08;15.00;;;10.47;;
1358;SDS011;673;48.098;14.422;2023-12-07T13:29:37;15.53;;;11.47;;
1358;SDS011;673;48.098;14.422;2023-12-07T13:32:04;18.40;;;11.10;;
1358;SDS011;673;48.098;14.422;2023-12-07T13:34:31;15.60;;;10.20;;
1358;SDS011;673;48.098;14.422;2023-12-07T13:36:58;15.20;;;11.63;;
1358;SDS011;673;48.098;14.422;2023-12-07T13:39:25;10.80;;;8.30;;
1358;SDS011;673;48.098;14.422;2023-12-07T13:41:52;13.67;;;9.53;;
1358;SDS011;673;48.098;14.422;2023-12-07T13:44:20;15.67;;;9.03;;
1358;SDS011;673;48.098;14.422;2023-12-07T13:46:50;13.57;;;9.07;;
1358;SDS011;673;48.098;14.422;2023-12-07T13:49:18;18.50;;;10.20;;
1358;SDS011;673;48.098;14.422;2023-12-07T13:51:46;12.40;;;9.73;;
1358;SDS011;673;48.098;14.422;2023-12-07T13:54:13;16.80;;;9.83;;
1358;SDS011;673;48.098;14.422;2023-12-07T13:56:40;16.57;;;10.50;;
1358;SDS011;673;48.098;14.422;2023-12-07T13:59:07;14.93;;;9.10;;
1358;SDS011;673;48.098;14.422;2023-12-07T14:01:35;16.17;;;10.83;;
1358;SDS011;673;48.098;14.422;2023-12-07T14:04:06;12.90;;;10.50;;
1358;SDS011;673;48.098;14.422;2023-12-07T14:06:33;12.70;;;10.43;;
1358;SDS011;673;48.098;14.422;2023-12-07T14:09:00;13.07;;;11.00;;
1358;SDS011;673;48.098;14.422;2023-12-07T14:11:28;16.00;;;10.40;;
1358;SDS011;673;48.098;14.422;2023-12-07T14:13:54;19.23;;;10.80;;
1358;SDS011;673;48.098;14.422;2023-12-07T14:16:21;13.17;;;10.33;;
1358;SDS011;673;48.098;14.422;2023-12-07T14:18:49;14.40;;;11.27;;
1358;SDS011;673;48.098;14.422;2023-12-07T14:21:20;19.40;;;12.57;;
1358;SDS011;673;48.098;14.422;2023-12-07T14:23:47;19.73;;;14.40;;
1358;SDS011;673;48.098;14.422;2023-12-07T14:26:14;20.07;;;15.30;;
1358;SDS011;673;48.098;14.422;2023-12-07T14:28:41;17.57;;;13.67;;
1358;SDS011;673;48.098;14.422;2023-12-07T14:31:08;25.93;;;14.57;;
1358;SDS011;673;48.098;14.422;2023-12-07T14:33:41;19.23;;;13.43;;
1358;SDS011;673;48.098;14.422;2023-12-07T14:36:09;25.73;;;14.70;;
1358;SDS011;673;48.098;14.422;2023-12-07T14:38:39;21.17;;;14.77;;
1358;SDS011;673;48.098;14.422;2023-12-07T14:41:08;17.53;;;11.93;;
1358;SDS011;673;48.098;14.422;2023-12-07T14:43:37;24.03;;;14.23;;
1358;SDS011;673;48.098;14.422;2023-12-07T14:46:05;22.17;;;13.73;;
1358;SDS011;673;48.098;14.422;2023-12-07T14:48:33;20.63;;;15.27;;
1358;SDS011;673;48.098;14.422;2023-12-07T14:51:00;18.50;;;12.40;;
1358;SDS011;673;48.098;14.422;2023-12-07T14:53:27;19.20;;;14.67;;
1358;SDS011;673;48.098;14.422;2023-12-07T14:55:56;21.33;;;15.10;;
1358;SDS011;673;48.098;14.422;2023-12-07T14:58:23;22.17;;;16.17;;
1358;SDS011;673;48.098;14.422;2023-12-07T15:00:50;22.17;;;17.13;;
1358;SDS011;673;48.098;14.422;2023-12-07T15:03:19;20.07;;;12.70;;
1358;SDS011;673;48.098;14.422;2023-12-07T15:05:47;22.10;;;13.93;;